createdAt,value
2023-01-20T00:02:03.995Z,99108.72
2023-01-20T00:04:31.657Z,99109.53
2023-01-20T00:06:59.701Z,99110.56
2023-01-20T00:09:27.356Z,99111.41
2023-01-20T00:11:55.015Z,99104.34
2023-01-20T00:14:22.677Z,99096.53
2023-01-20T00:16:51.787Z,99103.53
2023-01-20T00:19:19.462Z,99100.03
2023-01-20T00:21:47.203Z,99100.03
2023-01-20T00:24:14.922Z,99102.97
2023-01-20T00:26:42.608Z,99114.56
2023-01-20T00:29:10.296Z,99105.66
2023-01-20T00:31:38.139Z,99104.84
2023-01-20T00:34:07.209Z,99102.97
2023-01-20T00:36:35.292Z,99098.63
2023-01-20T00:39:03.369Z,99088.91
2023-01-20T00:41:31.133Z,99085.38
2023-01-20T00:43:58.837Z,99077.31
2023-01-20T00:46:26.561Z,99070.03
2023-01-20T00:48:54.224Z,99080.81
2023-01-20T00:51:23.245Z,99088.66
2023-01-20T00:53:50.884Z,99085.38
2023-01-20T00:56:18.516Z,99082.47
2023-01-20T00:58:46.277Z,99083.28
2023-01-20T01:01:14.020Z,99080.59
2023-01-20T01:03:41.750Z,99077.88
2023-01-20T01:06:10.115Z,99061.72
2023-01-20T01:08:39.228Z,99066.03
2023-01-20T01:11:06.929Z,99059.03
2023-01-20T01:13:34.701Z,99067.59
2023-01-20T01:16:02.439Z,99064.41
2023-01-20T01:18:30.168Z,99056.31
2023-01-20T01:20:57.859Z,99052.81
2023-01-20T01:23:25.572Z,99054.69
2023-01-20T01:25:54.682Z,99053.84
2023-01-20T01:28:22.354Z,99058.44
2023-01-20T01:30:50.043Z,99052.22
2023-01-20T01:33:17.747Z,99048.72
2023-01-20T01:35:45.468Z,99046.84
2023-01-20T01:38:13.199Z,99046.03
2023-01-20T01:40:40.937Z,99056.81
2023-01-20T01:43:12.624Z,99062.22
2023-01-20T01:45:40.389Z,99062.22
2023-01-20T01:48:08.918Z,99060.53
2023-01-20T01:50:38.567Z,99059.50
2023-01-20T01:53:06.238Z,99044.38
2023-01-20T01:55:34.697Z,99046.03
2023-01-20T01:58:02.349Z,99054.13
2023-01-20T02:00:31.508Z,99047.06
2023-01-20T02:02:59.161Z,99039.78
2023-01-20T02:05:26.827Z,99051.41
2023-01-20T02:07:54.530Z,99048.72
2023-01-20T02:10:22.180Z,99066.53
2023-01-20T02:12:51.265Z,99058.44
2023-01-20T02:15:22.902Z,99052.22
2023-01-20T02:17:54.648Z,99047.66
2023-01-20T02:20:32.112Z,99039.56
2023-01-20T02:22:59.954Z,99036.88
2023-01-20T02:25:34.892Z,99043.06
2023-01-20T02:28:12.483Z,99036.88
2023-01-20T02:30:51.842Z,99020.69
2023-01-20T02:33:21.220Z,99026.91
2023-01-20T02:35:50.503Z,99013.69
2023-01-20T02:38:20.846Z,99015.31
2023-01-20T02:40:50.087Z,99022.59
2023-01-20T02:43:19.351Z,99027.16
2023-01-20T02:45:48.395Z,99024.22
2023-01-20T02:48:17.332Z,99007.47
2023-01-20T02:50:46.888Z,99003.72
2023-01-20T02:53:14.584Z,98985.91
2023-01-20T02:55:43.357Z,98982.38
2023-01-20T02:58:12.100Z,98985.09
2023-01-20T03:00:42.517Z,98990.47
2023-01-20T03:03:11.080Z,98986.72
2023-01-20T03:05:39.338Z,98976.16
2023-01-20T03:08:09.048Z,98979.69
2023-01-20T03:10:36.753Z,98981.53
2023-01-20T03:13:06.807Z,98978.03
2023-01-20T03:15:36.685Z,98969.94
2023-01-20T03:18:04.367Z,98969.94
2023-01-20T03:20:31.986Z,98961.88
2023-01-20T03:22:59.783Z,98959.16
2023-01-20T03:25:28.777Z,98951.09
2023-01-20T03:27:56.455Z,98968.06
2023-01-20T03:30:25.506Z,98968.91
2023-01-20T03:32:53.211Z,98967.25
2023-01-20T03:35:21.273Z,98969.13
2023-01-20T03:37:48.921Z,98978.84
2023-01-20T03:40:16.748Z,98988.00
2023-01-20T03:42:47.119Z,98984.50
2023-01-20T03:45:16.586Z,98983.44
2023-01-20T03:47:49.632Z,98993.41
2023-01-20T03:50:19.324Z,98977.22
2023-01-20T03:52:49.347Z,98974.53
2023-01-20T03:55:17.643Z,98979.69
2023-01-20T03:57:46.675Z,98960.00
2023-01-20T04:00:14.733Z,98955.44
2023-01-20T04:02:42.457Z,98940.06
2023-01-20T04:05:10.255Z,98937.38
2023-01-20T04:07:37.894Z,98947.94
2023-01-20T04:10:07.015Z,98940.91
2023-01-20T04:12:34.701Z,98933.88
2023-01-20T04:15:03.766Z,98939.03
2023-01-20T04:17:31.450Z,98925.78
2023-01-20T04:19:59.146Z,98918.50
2023-01-20T04:22:27.976Z,98922.06
2023-01-20T04:24:56.204Z,98923.69
2023-01-20T04:27:23.851Z,98918.28
2023-01-20T04:29:51.510Z,98918.28
2023-01-20T04:32:20.490Z,98912.09
2023-01-20T04:34:48.115Z,98915.00
2023-01-20T04:37:15.756Z,98911.28
2023-01-20T04:39:43.406Z,98911.28
2023-01-20T04:42:11.163Z,98916.66
2023-01-20T04:44:38.792Z,98915.81
2023-01-20T04:47:06.601Z,98922.06
2023-01-20T04:49:36.579Z,98926.59
2023-01-20T04:52:04.340Z,98927.44
2023-01-20T04:54:32.076Z,98926.59
2023-01-20T04:56:59.769Z,98928.47
2023-01-20T04:59:27.472Z,98936.56
2023-01-20T05:01:55.287Z,98944.66
2023-01-20T05:04:22.965Z,98931.19
2023-01-20T05:06:52.097Z,98936.56
2023-01-20T05:09:19.829Z,98932.22
2023-01-20T05:11:47.481Z,98929.53
2023-01-20T05:14:15.247Z,98924.13
2023-01-20T05:16:42.922Z,98928.47
2023-01-20T05:19:11.803Z,98931.19
2023-01-20T05:21:39.901Z,98921.22
2023-01-20T05:24:09.173Z,98929.28
2023-01-20T05:26:36.834Z,98922.88
2023-01-20T05:29:04.471Z,98906.69
2023-01-20T05:31:32.244Z,98913.97
2023-01-20T05:34:00.185Z,98920.16
2023-01-20T05:36:28.375Z,98931.75
2023-01-20T05:38:56.062Z,98939.03
2023-01-20T05:41:25.149Z,98947.94
2023-01-20T05:43:53.909Z,98945.22
2023-01-20T05:46:21.561Z,98947.13
2023-01-20T05:48:49.223Z,98941.72
2023-01-20T05:51:16.887Z,98942.78
2023-01-20T05:53:44.529Z,98942.78
2023-01-20T05:56:16.091Z,98930.34
2023-01-20T05:58:45.387Z,98945.69
2023-01-20T06:01:13.617Z,98943.00
2023-01-20T06:03:41.419Z,98938.22
2023-01-20T06:06:09.688Z,98932.84
2023-01-20T06:08:37.340Z,98943.63
2023-01-20T06:11:05.092Z,98938.22
2023-01-20T06:13:32.807Z,98947.13
2023-01-20T06:16:01.881Z,98946.88
2023-01-20T06:18:30.605Z,98947.94
2023-01-20T06:20:58.883Z,98964.91
2023-01-20T06:23:26.623Z,98965.75
2023-01-20T06:25:58.962Z,98959.28
2023-01-20T06:28:26.595Z,98964.69
2023-01-20T06:31:01.254Z,98975.22
2023-01-20T06:33:29.097Z,98955.53
2023-01-20T06:35:56.796Z,98946.41
2023-01-20T06:38:27.191Z,98959.88
2023-01-20T06:40:57.536Z,98964.19
2023-01-20T06:43:25.268Z,98966.31
2023-01-20T06:45:52.891Z,98965.84
2023-01-20T06:48:22.233Z,98969.34
2023-01-20T06:50:49.897Z,98972.03
2023-01-20T06:53:17.614Z,98983.63
2023-01-20T06:55:45.340Z,98971.22
2023-01-20T06:58:12.964Z,98975.78
2023-01-20T07:00:41.174Z,98992.81
2023-01-20T07:03:09.012Z,98974.97
2023-01-20T07:05:38.056Z,98978.75
2023-01-20T07:08:05.979Z,98997.34
2023-01-20T07:10:33.721Z,98983.06
2023-01-20T07:13:01.442Z,99000.88
2023-01-20T07:15:29.160Z,99019.75
2023-01-20T07:17:56.908Z,99028.66
2023-01-20T07:20:24.591Z,99031.09
2023-01-20T07:22:53.722Z,99024.66
2023-01-20T07:25:21.384Z,99013.88
2023-01-20T07:27:49.125Z,98997.69
2023-01-20T07:30:17.223Z,98970.75
2023-01-20T07:32:45.113Z,98961.59
2023-01-20T07:35:13.213Z,98983.16
2023-01-20T07:37:41.129Z,99006.38
2023-01-20T07:40:11.011Z,99003.66
2023-01-20T07:42:38.683Z,99001.53
2023-01-20T07:45:06.902Z,99013.16
2023-01-20T07:47:34.661Z,99015.84
2023-01-20T07:50:02.291Z,99023.66
2023-01-20T07:52:31.674Z,99024.47
2023-01-20T07:54:59.349Z,99025.28
2023-01-20T07:57:30.112Z,99033.38
2023-01-20T07:59:57.958Z,99033.16
2023-01-20T08:02:25.635Z,99028.56
2023-01-20T08:04:53.492Z,99030.47
2023-01-20T08:07:21.195Z,99028.56
2023-01-20T08:09:50.239Z,99028.56
2023-01-20T08:12:18.530Z,99029.38
2023-01-20T08:14:47.706Z,99033.97
2023-01-20T08:17:15.969Z,99026.94
2023-01-20T08:19:43.701Z,99039.34
2023-01-20T08:22:12.072Z,99040.16
2023-01-20T08:24:39.764Z,99031.28
2023-01-20T08:27:08.111Z,99029.38
2023-01-20T08:32:04.874Z,99026.47
2023-01-20T08:34:32.799Z,99027.53
2023-01-20T08:37:00.421Z,99030.22
2023-01-20T08:39:28.267Z,99044.25
2023-01-20T08:41:56.475Z,99044.25
2023-01-20T08:44:24.747Z,99041.00
2023-01-20T08:46:55.120Z,99057.19
2023-01-20T08:49:24.511Z,99062.59
2023-01-20T08:51:52.211Z,99059.31
2023-01-20T08:54:19.910Z,99075.47
2023-01-20T08:56:48.389Z,99075.47
2023-01-20T08:59:16.049Z,99089.53
2023-01-20T09:01:44.987Z,99104.88
2023-01-20T09:04:12.713Z,99096.78
2023-01-20T09:06:43.344Z,99092.25
2023-01-20T09:09:11.044Z,99098.66
2023-01-20T09:11:40.144Z,99088.69
2023-01-20T09:14:07.945Z,99093.28
2023-01-20T09:16:36.311Z,99086.25
2023-01-20T09:19:04.272Z,99080.88
2023-01-20T09:21:32.780Z,99079.22
2023-01-20T09:24:01.846Z,99076.78
2023-01-20T09:26:39.353Z,99095.06
2023-01-20T09:29:10.315Z,99088.06
2023-01-20T09:31:39.103Z,99096.38
2023-01-20T09:34:09.957Z,99086.41
2023-01-20T09:36:38.403Z,99089.34
2023-01-20T09:39:25.133Z,99087.69
2023-01-20T09:42:10.850Z,99076.34
2023-01-20T09:44:44.779Z,99067.44
2023-01-20T09:47:23.343Z,99061.22
2023-01-20T09:50:15.127Z,99061.50
2023-01-20T09:53:00.961Z,99045.53
2023-01-20T09:55:30.166Z,99035.84
2023-01-20T09:58:00.789Z,99038.53
2023-01-20T10:00:28.996Z,99052.22
2023-01-20T10:02:59.982Z,99063.00
2023-01-20T10:05:32.959Z,99056.81
2023-01-20T10:08:02.975Z,99054.94
2023-01-20T10:10:32.337Z,99054.13
2023-01-20T10:13:04.062Z,99053.03
2023-01-20T10:15:31.990Z,99064.63
2023-01-20T10:18:00.939Z,99062.78
2023-01-20T10:20:29.875Z,99055.50
2023-01-20T10:23:00.019Z,99066.28
2023-01-20T10:25:29.255Z,99054.69
2023-01-20T10:27:59.331Z,99060.09
2023-01-20T10:30:28.201Z,99065.47
2023-01-20T10:32:56.148Z,99060.91
2023-01-20T10:35:24.934Z,99057.41
2023-01-20T10:37:52.903Z,99040.38
2023-01-20T10:40:25.833Z,99035.84
2023-01-20T10:42:54.498Z,99036.06
2023-01-20T10:45:27.642Z,99032.56
2023-01-20T10:47:56.188Z,99035.25
2023-01-20T10:50:30.221Z,99030.06
2023-01-20T10:53:07.151Z,99029.25
2023-01-20T10:55:38.793Z,99019.53
2023-01-20T10:58:07.896Z,99014.16
2023-01-20T11:00:37.639Z,99012.50
2023-01-20T11:03:06.290Z,99030.53
2023-01-20T11:05:37.978Z,99029.72
2023-01-20T11:08:08.018Z,99021.66
2023-01-20T11:10:36.601Z,99028.09
2023-01-20T11:13:04.463Z,99029.16
2023-01-20T11:15:33.146Z,99016.75
2023-01-20T11:18:21.104Z,99005.97
2023-01-20T11:20:50.673Z,99014.06
2023-01-20T11:23:22.390Z,99022.13
2023-01-20T11:25:55.563Z,99039.94
2023-01-20T11:28:23.234Z,99037.81
2023-01-20T11:30:52.063Z,99033.50
2023-01-20T11:33:22.551Z,99046.97
2023-01-20T11:36:00.198Z,99039.94
2023-01-20T11:38:30.045Z,99045.31
2023-01-20T11:40:58.014Z,99046.13
2023-01-20T11:43:30.661Z,99052.38
2023-01-20T11:46:11.029Z,99044.28
2023-01-20T11:48:41.501Z,99044.28
2023-01-20T11:51:15.680Z,99052.38
2023-01-20T11:53:45.622Z,99070.16
2023-01-20T11:56:16.214Z,99080.94
2023-01-20T11:58:51.101Z,99086.56
2023-01-20T12:01:21.664Z,99077.66
2023-01-20T12:03:56.111Z,99088.44
2023-01-20T12:06:24.444Z,99083.88
2023-01-20T12:08:53.052Z,99086.81
2023-01-20T12:11:22.597Z,99102.97
2023-01-20T12:14:14.043Z,99102.97
2023-01-20T12:16:41.818Z,99102.97
2023-01-20T12:19:12.883Z,99118.34
2023-01-20T12:21:42.381Z,99114.81
2023-01-20T12:24:11.642Z,99120.19
2023-01-20T12:26:39.272Z,99122.88
2023-01-20T12:29:09.411Z,99113.19
2023-01-20T12:31:37.137Z,99111.28
2023-01-20T12:34:06.648Z,99112.09
2023-01-20T12:36:41.366Z,99113.50
2023-01-20T12:39:14.766Z,99107.31
2023-01-20T12:41:49.730Z,99110.00
2023-01-20T12:44:19.332Z,99118.91
2023-01-20T12:46:47.453Z,99118.66
2023-01-20T12:49:20.133Z,99122.19
2023-01-20T12:51:52.979Z,99125.69
2023-01-20T12:54:32.675Z,99127.56
2023-01-20T12:57:12.868Z,99120.56
2023-01-20T12:59:43.379Z,99122.44
2023-01-20T13:02:29.070Z,99127.81
2023-01-20T13:05:04.245Z,99125.13
2023-01-20T13:07:49.553Z,99132.38
2023-01-20T13:10:21.953Z,99147.72
2023-01-20T13:12:50.690Z,99139.66
2023-01-20T13:15:19.605Z,99141.53
2023-01-20T13:17:50.838Z,99147.72
2023-01-20T13:20:21.155Z,99153.38
2023-01-20T13:22:49.690Z,99149.84
2023-01-20T13:25:19.035Z,99146.34
2023-01-20T13:27:51.145Z,99154.41
2023-01-20T13:30:37.741Z,99150.69
2023-01-20T13:33:08.751Z,99152.53
2023-01-20T13:35:42.719Z,99148.22
2023-01-20T13:38:15.665Z,99147.16
2023-01-20T13:40:50.575Z,99146.09
2023-01-20T13:43:37.142Z,99140.72
2023-01-20T13:46:23.246Z,99138.59
2023-01-20T13:49:07.934Z,99148.53
2023-01-20T13:51:44.897Z,99150.09
2023-01-20T13:54:34.934Z,99157.47
2023-01-20T13:57:23.252Z,99171.75
2023-01-20T13:59:53.892Z,99173.66
2023-01-20T14:02:21.864Z,99172.78
2023-01-20T14:04:50.345Z,99174.69
2023-01-20T14:07:23.157Z,99182.75
2023-01-20T14:09:54.729Z,99184.88
2023-01-20T14:12:25.765Z,99190.25
2023-01-20T14:14:57.815Z,99182.19
2023-01-20T14:17:25.591Z,99180.56
2023-01-20T14:19:53.399Z,99190.25
2023-01-20T14:22:22.234Z,99190.53
2023-01-20T14:24:50.137Z,99196.94
2023-01-20T14:27:20.843Z,99197.19
2023-01-20T14:29:48.915Z,99204.47
2023-01-20T14:32:22.457Z,99200.94
2023-01-20T14:34:50.437Z,99203.63
2023-01-20T14:37:36.493Z,99210.09
2023-01-20T14:40:07.060Z,99199.31
2023-01-20T14:42:36.990Z,99210.91
2023-01-20T14:45:17.281Z,99205.75
2023-01-20T14:47:47.096Z,99216.53
2023-01-20T14:50:15.040Z,99220.28
2023-01-20T14:52:42.897Z,99220.28
2023-01-20T14:55:26.128Z,99226.50
2023-01-20T14:57:53.895Z,99226.25
2023-01-20T15:00:21.754Z,99237.03
2023-01-20T15:03:05.309Z,99239.72
2023-01-20T15:05:37.311Z,99252.13
2023-01-20T15:08:06.480Z,99254.00
2023-01-20T15:10:34.264Z,99267.25
2023-01-20T15:13:01.960Z,99257.53
2023-01-20T15:15:30.629Z,99257.53
2023-01-20T15:18:06.559Z,99265.59
2023-01-20T15:20:35.814Z,99272.06
2023-01-20T15:23:03.520Z,99275.81
2023-01-20T15:25:31.232Z,99273.13
2023-01-20T15:28:00.206Z,99283.31
2023-01-20T15:30:29.908Z,99291.41
2023-01-20T15:32:58.679Z,99288.94
2023-01-20T15:35:27.836Z,99286.22
2023-01-20T15:37:56.943Z,99290.81
2023-01-20T15:40:24.868Z,99291.88
2023-01-20T15:42:55.677Z,99295.59
2023-01-20T15:45:25.739Z,99301.00
2023-01-20T15:47:53.945Z,99301.00
2023-01-20T15:50:22.935Z,99304.75
2023-01-20T15:52:52.024Z,99310.13
2023-01-20T15:55:19.737Z,99307.44
2023-01-20T15:57:48.844Z,99310.13
2023-01-20T16:00:17.814Z,99310.13
2023-01-20T16:02:46.412Z,99318.00
2023-01-20T16:05:17.147Z,99322.56
2023-01-20T16:07:47.994Z,99316.13
2023-01-20T16:10:18.297Z,99319.63
2023-01-20T16:12:46.847Z,99332.28
2023-01-20T16:15:15.756Z,99331.22
2023-01-20T16:17:43.444Z,99329.59
2023-01-20T16:20:21.846Z,99329.59
2023-01-20T16:22:49.754Z,99323.16
2023-01-20T16:25:19.805Z,99318.00
2023-01-20T16:27:47.526Z,99321.72
2023-01-20T16:30:17.806Z,99326.31
2023-01-20T16:32:47.150Z,99321.72
2023-01-20T16:35:14.923Z,99319.28
2023-01-20T16:37:43.406Z,99319.28
2023-01-20T16:40:13.043Z,99316.00
2023-01-20T16:42:42.863Z,99317.63
2023-01-20T16:45:18.401Z,99318.69
2023-01-20T16:47:47.909Z,99321.41
2023-01-20T16:50:15.848Z,99326.78
2023-01-20T16:52:44.339Z,99335.09
2023-01-20T16:55:13.587Z,99333.47
2023-01-20T16:57:45.363Z,99340.47
2023-01-20T17:00:15.626Z,99339.66
2023-01-20T17:02:46.945Z,99334.28
2023-01-20T17:05:14.562Z,99339.66
2023-01-20T17:07:43.077Z,99342.34
2023-01-20T17:10:11.648Z,99349.63
2023-01-20T17:12:40.972Z,99354.19
2023-01-20T17:15:10.530Z,99350.44
2023-01-20T17:17:39.600Z,99357.44
2023-01-20T17:20:10.205Z,99362.03
2023-01-20T17:22:41.049Z,99368.22
2023-01-20T17:25:09.122Z,99373.63
2023-01-20T17:27:37.608Z,99371.78
2023-01-20T17:30:05.506Z,99369.88
2023-01-20T17:32:34.605Z,99368.22
2023-01-20T17:35:04.981Z,99369.88
2023-01-20T17:37:32.694Z,99380.66
2023-01-20T17:40:01.982Z,99379.00
2023-01-20T17:42:30.426Z,99378.19
2023-01-20T17:45:02.835Z,99382.75
2023-01-20T17:47:31.544Z,99390.84
2023-01-20T17:50:01.454Z,99386.53
2023-01-20T17:52:29.212Z,99392.94
2023-01-20T17:54:57.599Z,99397.53
2023-01-20T17:57:27.035Z,99389.44
2023-01-20T17:59:55.572Z,99387.00
2023-01-20T18:02:23.696Z,99389.69
2023-01-20T18:04:52.092Z,99395.06
2023-01-20T18:07:21.181Z,99403.16
2023-01-20T18:09:49.596Z,99396.09
2023-01-20T18:12:17.320Z,99394.22
2023-01-20T18:14:47.026Z,99398.81
2023-01-20T18:17:14.716Z,99413.94
2023-01-20T18:19:43.585Z,99414.16
2023-01-20T18:22:12.572Z,99416.03
2023-01-20T18:24:43.404Z,99415.22
2023-01-20T18:27:11.143Z,99411.69
2023-01-20T18:29:39.556Z,99419.31
2023-01-20T18:32:07.229Z,99419.31
2023-01-20T18:34:35.155Z,99419.31
2023-01-20T18:37:04.287Z,99422.81
2023-01-20T18:39:31.986Z,99426.34
2023-01-20T18:42:01.769Z,99430.91
2023-01-20T18:44:30.305Z,99430.91
2023-01-20T18:46:58.832Z,99437.13
2023-01-20T18:49:26.495Z,99429.84
2023-01-20T18:51:55.028Z,99429.03
2023-01-20T18:54:22.680Z,99417.44
2023-01-20T18:56:52.066Z,99417.66
2023-01-20T18:59:21.075Z,99416.84
2023-01-20T19:01:51.004Z,99420.34
2023-01-20T19:04:18.680Z,99427.63
2023-01-20T19:06:47.355Z,99423.03
2023-01-20T19:09:16.074Z,99417.66
2023-01-20T19:11:45.971Z,99427.41
2023-01-20T19:14:14.267Z,99429.25
2023-01-20T19:16:45.986Z,99437.13
2023-01-20T19:19:13.740Z,99439.81
2023-01-20T19:21:43.077Z,99433.59
2023-01-20T19:24:12.011Z,99442.50
2023-01-20T19:26:40.923Z,99451.66
2023-01-20T19:29:09.019Z,99453.28
2023-01-20T19:31:38.277Z,99465.69
2023-01-20T19:34:07.457Z,99461.38
2023-01-20T19:36:35.882Z,99459.47
2023-01-20T19:39:03.625Z,99461.97
2023-01-20T19:41:33.276Z,99467.34
2023-01-20T19:44:05.227Z,99466.28
2023-01-20T19:46:33.947Z,99464.41
2023-01-20T19:49:03.044Z,99467.91
2023-01-20T19:51:32.394Z,99473.09
2023-01-20T19:54:00.639Z,99473.91
2023-01-20T19:56:29.991Z,99473.91
2023-01-20T19:58:57.685Z,99480.34
2023-01-20T20:01:25.943Z,99477.66
2023-01-20T20:03:54.634Z,99484.09
2023-01-20T20:06:23.622Z,99487.63
2023-01-20T20:08:52.716Z,99491.13
2023-01-20T20:11:21.101Z,99491.34
2023-01-20T20:13:48.958Z,99496.75
2023-01-20T20:16:16.671Z,99498.41
2023-01-20T20:18:46.001Z,99496.75
2023-01-20T20:21:13.630Z,99497.56
2023-01-20T20:23:41.409Z,99511.88
2023-01-20T20:26:12.015Z,99504.63
2023-01-20T20:28:39.784Z,99509.19
2023-01-20T20:31:08.469Z,99509.19
2023-01-20T20:33:36.341Z,99519.13
2023-01-20T20:36:06.291Z,99498.41
2023-01-20T20:38:39.119Z,99514.31
2023-01-20T20:41:07.937Z,99513.50
2023-01-20T20:43:41.301Z,99517.03
2023-01-20T20:46:09.102Z,99517.03
2023-01-20T20:48:37.568Z,99524.06
2023-01-20T20:51:05.957Z,99524.06
2023-01-20T20:53:33.677Z,99519.50
2023-01-20T20:56:04.872Z,99528.41
2023-01-20T20:58:32.847Z,99538.13
2023-01-20T21:01:03.729Z,99538.97
2023-01-20T21:03:31.511Z,99539.78
2023-01-20T21:06:00.561Z,99538.13
2023-01-20T21:08:28.224Z,99540.25
2023-01-20T21:10:57.183Z,99547.25
2023-01-20T21:13:24.831Z,99547.25
2023-01-20T21:15:56.476Z,99545.63
2023-01-20T21:18:25.537Z,99540.25
2023-01-20T21:20:57.813Z,99545.63
2023-01-20T21:23:25.443Z,99551.03
2023-01-20T21:25:54.005Z,99553.72
2023-01-20T21:28:21.711Z,99551.03
2023-01-20T21:30:50.191Z,99559.09
2023-01-20T21:33:18.115Z,99571.72
2023-01-20T21:35:47.931Z,99569.03
2023-01-20T21:38:15.574Z,99572.56
2023-01-20T21:41:01.198Z,99570.91
2023-01-20T21:43:50.956Z,99566.59
2023-01-20T21:46:20.220Z,99570.91
2023-01-20T21:49:05.012Z,99570.91
2023-01-20T21:51:53.229Z,99563.88
2023-01-20T21:54:21.242Z,99560.13
2023-01-20T21:56:51.147Z,99570.09
2023-01-20T21:59:18.881Z,99574.66
2023-01-20T22:01:47.340Z,99570.91
2023-01-20T22:04:15.104Z,99573.84
2023-01-20T22:06:45.461Z,99573.84
2023-01-20T22:09:13.289Z,99570.56
2023-01-20T22:11:41.644Z,99565.97
2023-01-20T22:14:09.769Z,99561.06
2023-01-20T22:16:38.216Z,99566.44
2023-01-20T22:19:06.072Z,99565.63
2023-01-20T22:21:34.537Z,99567.50
2023-01-20T22:24:04.791Z,99564.81
2023-01-20T22:26:32.423Z,99558.56
2023-01-20T22:29:00.724Z,99563.16
2023-01-20T22:31:30.134Z,99557.75
2023-01-20T22:33:59.047Z,99551.56
2023-01-20T22:36:26.716Z,99542.88
2023-01-20T22:38:55.141Z,99542.88
2023-01-20T22:41:24.257Z,99547.22
2023-01-20T22:43:54.238Z,99548.03
2023-01-20T22:46:22.107Z,99546.16
2023-01-20T22:48:50.457Z,99552.38
2023-01-20T22:51:18.646Z,99540.78
2023-01-20T22:53:47.074Z,99546.16
2023-01-20T22:56:15.143Z,99548.66
2023-01-20T22:58:45.453Z,99548.66
2023-01-20T23:01:13.224Z,99538.91
2023-01-20T23:03:41.699Z,99538.91
2023-01-20T23:06:09.385Z,99538.91
2023-01-20T23:08:37.759Z,99532.69
2023-01-20T23:11:06.011Z,99533.50
2023-01-20T23:13:35.861Z,99535.38
2023-01-20T23:16:06.569Z,99534.56
2023-01-20T23:18:36.133Z,99534.56
2023-01-20T23:21:05.886Z,99538.28
2023-01-20T23:23:34.392Z,99535.03
2023-01-20T23:26:02.504Z,99529.63
2023-01-20T23:28:30.571Z,99538.75
2023-01-20T23:31:01.908Z,99542.50
2023-01-20T23:33:31.283Z,99547.91
2023-01-20T23:36:03.679Z,99545.19
2023-01-20T23:38:31.443Z,99531.94
2023-01-20T23:40:59.185Z,99532.75
2023-01-20T23:43:26.929Z,99539.22
2023-01-20T23:45:57.281Z,99536.50
2023-01-20T23:48:24.998Z,99537.56
2023-01-20T23:50:54.864Z,99536.50
2023-01-20T23:53:22.528Z,99534.88
2023-01-20T23:55:50.260Z,99527.84
2023-01-20T23:58:17.990Z,99530.53
